Lahoma, Oklahoma
Current Conditions -  °F | °C
As of 7:58 AM on Thursday 27 Nov 2014 (Local Time) from KEND Reporting Station
Clear Clear  
Wind Chill: 24°   Ceiling: Unl
Heat Index: 24°   Visibility: 10mi
Dew Point: 20°   Wind: 0mph
Humidity: 85%   Direction: NA
Pressure: 30.51"   Gusts: NA
Location:  36.39°N, 98.09°W
Report Text: KEND 271358Z AUTO 00000KT 10SM CLR M05/M07 A3051 RMK AO2 SLP346 T10471068 $
Loading
Personal Weather Stations






























Interactive Weather Map New forecast layout! Learn more

10-Day Weather Forecast

Advertisements
Track Severe Weather on mobile